Time;durP1;ratioP1;P1;durP2;ratioP2;P2;SDS_P1;SDS_P2;PMS_P1;PMS_P2;Temp;Humidity;BMP_temperature;BMP_pressure;BME280_temperature;BME280_humidity;BME280_pressure;Samples;Min_cycle;Max_cycle;Signal;HPM_P1;HPM_P2
2022/03/02 00:00:28;;;;;;;30.40;20.80;;;9.10;99.90;;;;;;5094366;28;20208;-78
2022/03/02 00:02:55;;;;;;;28.13;21.30;;;9.10;99.90;;;;;;5094381;28;20668;-77
2022/03/02 00:05:24;;;;;;;27.37;20.63;;;9.20;99.90;;;;;;5093861;28;20200;-77
2022/03/02 00:07:51;;;;;;;27.60;21.20;;;9.20;99.90;;;;;;5094449;28;20193;-77
2022/03/02 00:10:18;;;;;;;29.83;20.50;;;9.20;99.90;;;;;;5094010;28;20216;-77
2022/03/02 00:12:45;;;;;;;27.30;20.57;;;9.20;99.90;;;;;;5093893;28;20239;-77
2022/03/02 00:15:11;;;;;;;28.47;21.00;;;9.20;99.90;;;;;;5093763;28;20184;-77
2022/03/02 00:17:40;;;;;;;28.67;21.10;;;9.10;99.90;;;;;;5093829;28;20194;-77
2022/03/02 00:20:07;;;;;;;31.30;21.77;;;8.90;99.90;;;;;;5093872;28;20200;-77
2022/03/02 00:22:34;;;;;;;30.47;21.93;;;8.90;99.90;;;;;;5094243;28;20196;-78
2022/03/02 00:25:02;;;;;;;29.97;21.20;;;8.90;99.90;;;;;;5093919;28;20206;-77
2022/03/02 00:27:29;;;;;;;31.77;21.47;;;9.00;99.90;;;;;;5094008;28;20651;-77
2022/03/02 00:29:56;;;;;;;32.53;22.10;;;8.80;99.90;;;;;;5093562;28;20288;-78
2022/03/02 00:32:23;;;;;;;30.00;21.10;;;8.80;99.90;;;;;;5094120;28;20225;-76
2022/03/02 00:34:51;;;;;;;28.95;25.48;;;8.80;99.90;;;;;;5092353;28;20864;-77
2022/03/02 00:37:18;;;;;;;28.80;22.50;;;9.00;99.90;;;;;;5094201;28;20194;-78
2022/03/02 00:39:45;;;;;;;30.60;22.23;;;9.00;99.90;;;;;;5093626;28;20770;-77
2022/03/02 00:42:12;;;;;;;30.50;21.50;;;8.90;99.90;;;;;;5093727;28;20213;-78
2022/03/02 00:44:39;;;;;;;28.07;22.17;;;8.80;99.90;;;;;;5093652;28;20200;-77
2022/03/02 00:47:07;;;;;;;28.23;21.27;;;8.80;99.90;;;;;;5093551;28;20208;-79
2022/03/02 00:49:35;;;;;;;28.20;21.90;;;8.70;99.90;;;;;;5093642;28;20233;-77
2022/03/02 00:52:06;;;;;;;26.70;21.73;;;8.60;99.90;;;;;;5093549;28;20231;-77
2022/03/02 00:54:34;;;;;;;28.50;21.37;;;8.60;99.90;;;;;;5093865;28;20243;-77
2022/03/02 00:57:00;;;;;;;29.37;20.67;;;8.60;99.90;;;;;;5093810;28;20201;-77
2022/03/02 00:59:27;;;;;;;28.87;21.37;;;8.60;99.90;;;;;;5093678;28;20228;-77
2022/03/02 01:01:54;;;;;;;26.60;20.83;;;8.50;99.90;;;;;;5093266;28;20205;-79
2022/03/02 01:04:21;;;;;;;28.40;21.97;;;8.50;99.90;;;;;;5093325;28;20558;-78
2022/03/02 01:06:48;;;;;;;34.33;23.67;;;8.50;99.90;;;;;;5093371;28;20193;-78
2022/03/02 01:09:17;;;;;;;27.73;21.73;;;8.60;99.90;;;;;;5093921;28;20196;-78
2022/03/02 01:11:43;;;;;;;29.23;21.17;;;8.50;99.90;;;;;;5093364;28;20228;-78
2022/03/02 01:14:10;;;;;;;30.37;21.93;;;8.50;99.90;;;;;;5093467;28;20205;-77
2022/03/02 01:16:37;;;;;;;31.20;22.03;;;8.40;99.90;;;;;;5093264;28;20197;-77
2022/03/02 01:19:05;;;;;;;32.27;22.60;;;8.30;99.90;;;;;;5093412;28;20205;-77
2022/03/02 01:21:32;;;;;;;27.83;21.43;;;8.30;99.90;;;;;;5093411;28;20241;-77
2022/03/02 01:23:59;;;;;;;32.72;27.35;;;8.40;99.90;;;;;;5092155;28;20797;-77
2022/03/02 01:26:29;;;;;;;32.77;23.60;;;8.60;99.90;;;;;;5093352;28;20193;-77
2022/03/02 01:28:56;;;;;;;30.57;22.80;;;8.60;99.90;;;;;;5093810;28;20557;-77
2022/03/02 01:31:23;;;;;;;36.20;24.37;;;8.60;99.90;;;;;;5096949;28;20577;-77
2022/03/02 01:33:51;;;;;;;36.07;24.97;;;8.60;99.90;;;;;;5097255;28;20256;-77
2022/03/02 01:36:18;;;;;;;34.87;25.20;;;8.50;99.90;;;;;;5097572;28;20201;-77
2022/03/02 01:38:45;;;;;;;35.90;25.93;;;8.50;99.90;;;;;;5097432;28;20652;-77
2022/03/02 01:41:15;;;;;;;33.67;26.03;;;8.40;99.90;;;;;;5097374;28;20194;-77
2022/03/02 01:43:43;;;;;;;37.10;26.17;;;8.30;99.90;;;;;;5097212;28;20209;-77
2022/03/02 01:46:10;;;;;;;37.07;26.80;;;8.40;99.90;;;;;;5097013;28;20237;-77
2022/03/02 01:48:37;;;;;;;43.67;26.90;;;8.40;99.90;;;;;;5097000;28;20213;-77
2022/03/02 01:51:04;;;;;;;37.73;27.20;;;8.40;99.90;;;;;;5096983;28;20197;-78
2022/03/02 01:53:31;;;;;;;43.17;26.80;;;8.40;99.90;;;;;;5096934;28;20221;-77
2022/03/02 01:56:00;;;;;;;38.70;27.27;;;8.10;99.90;;;;;;5097228;28;20205;-78
2022/03/02 01:58:29;;;;;;;39.03;28.27;;;8.10;99.90;;;;;;5097094;28;20200;-79
2022/03/02 02:01:00;;;;;;;39.87;28.90;;;8.10;99.90;;;;;;5096461;28;20197;-77
2022/03/02 02:03:27;;;;;;;43.57;29.40;;;8.10;99.90;;;;;;5096390;28;20193;-77
2022/03/02 02:05:55;;;;;;;38.53;27.97;;;8.00;99.90;;;;;;5096810;28;20189;-77
2022/03/02 02:08:22;;;;;;;40.33;28.37;;;8.10;99.90;;;;;;5097005;28;20189;-77
2022/03/02 02:10:51;;;;;;;39.87;27.73;;;8.20;99.90;;;;;;5096795;28;20236;-77
2022/03/02 02:13:18;;;;;;;38.17;26.10;;;8.20;99.90;;;;;;5096330;28;20760;-77
2022/03/02 02:15:45;;;;;;;41.40;27.87;;;8.10;99.90;;;;;;5096647;28;20208;-77
2022/03/02 02:18:13;;;;;;;42.33;27.43;;;8.20;99.90;;;;;;5096605;28;20202;-77
2022/03/02 02:20:42;;;;;;;37.13;26.90;;;8.00;99.90;;;;;;5096923;28;20208;-78
2022/03/02 02:23:09;;;;;;;38.03;26.90;;;8.10;99.90;;;;;;5076642;28;20206;-78
2022/03/02 02:25:36;;;;;;;35.87;26.67;;;8.30;99.90;;;;;;5074751;28;20211;-77
2022/03/02 02:28:03;;;;;;;39.07;26.70;;;8.30;99.90;;;;;;5073794;28;20209;-76
2022/03/02 02:30:31;;;;;;;33.77;25.23;;;8.30;99.90;;;;;;5074670;28;20202;-77
2022/03/02 02:32:58;;;;;;;37.77;27.67;;;8.20;99.90;;;;;;5076170;28;20594;-77
2022/03/02 02:35:26;;;;;;;36.17;26.90;;;8.20;99.90;;;;;;5076015;28;20208;-78
2022/03/02 02:37:55;;;;;;;37.53;26.20;;;8.10;99.90;;;;;;5075900;28;20270;-77
2022/03/02 02:40:22;;;;;;;35.47;25.87;;;8.10;99.90;;;;;;5075654;28;20255;-77
2022/03/02 02:42:52;;;;;;;35.57;24.77;;;8.00;99.90;;;;;;5075961;28;20555;-78
2022/03/02 02:45:21;;;;;;;35.47;26.67;;;8.10;99.90;;;;;;5076034;28;20268;-77
2022/03/02 02:50:20;;;;;;;33.13;25.40;;;8.10;99.90;;;;;;5119034;22;20295;-75
2022/03/02 02:52:48;;;;;;;38.40;25.63;;;8.10;99.90;;;;;;5053470;28;20329;-74
2022/03/02 02:55:17;;;;;;;33.90;25.10;;;8.10;99.90;;;;;;5055314;28;20199;-75
2022/03/02 02:57:44;;;;;;;38.00;25.87;;;8.10;99.90;;;;;;5055138;28;20206;-74
2022/03/02 03:00:15;;;;;;;36.53;24.23;;;8.00;99.90;;;;;;5055272;28;20198;-76
2022/03/02 03:02:43;;;;;;;39.77;25.17;;;8.00;99.90;;;;;;5054724;28;20202;-74
2022/03/02 03:05:15;;;;;;;32.63;24.63;;;8.00;99.90;;;;;;5055043;28;20377;-74
2022/03/02 03:07:43;;;;;;;38.03;25.80;;;7.80;99.90;;;;;;5054844;28;20209;-74
2022/03/02 03:10:12;;;;;;;39.03;26.23;;;8.00;99.90;;;;;;5055116;28;20206;-74
2022/03/02 03:12:42;;;;;;;34.80;25.53;;;7.90;99.90;;;;;;5054456;28;20234;-75
2022/03/02 03:15:11;;;;;;;32.63;24.87;;;8.00;99.90;;;;;;5054863;28;20614;-74
2022/03/02 03:17:38;;;;;;;34.50;25.33;;;7.70;99.90;;;;;;5054913;28;20209;-75
2022/03/02 03:20:08;;;;;;;38.73;25.67;;;7.70;99.90;;;;;;5055015;28;20209;-77
2022/03/02 03:22:35;;;;;;;32.60;25.77;;;7.80;99.90;;;;;;5054890;28;20207;-75
2022/03/02 03:25:02;;;;;;;35.30;27.90;;;7.60;99.90;;;;;;5054679;28;20433;-74
2022/03/02 03:27:29;;;;;;;33.07;24.23;;;7.80;99.90;;;;;;5054639;28;20206;-74
2022/03/02 03:29:57;;;;;;;32.97;24.93;;;7.90;99.90;;;;;;5055373;28;20194;-74
2022/03/02 03:32:26;;;;;;;34.40;25.50;;;7.90;99.90;;;;;;5055116;28;20191;-75
2022/03/02 03:34:53;;;;;;;28.93;23.50;;;7.90;99.90;;;;;;5054954;28;20206;-75
2022/03/02 03:37:20;;;;;;;31.37;24.83;;;7.90;99.90;;;;;;5055181;28;20202;-75
2022/03/02 03:39:47;;;;;;;40.27;26.33;;;7.70;99.90;;;;;;5055099;28;20194;-75
2022/03/02 03:42:14;;;;;;;33.17;25.00;;;7.70;99.90;;;;;;5054472;28;20675;-75
2022/03/02 03:44:40;;;;;;;33.30;25.20;;;7.40;99.90;;;;;;5055081;28;20191;-75
2022/03/02 03:47:09;;;;;;;34.80;24.67;;;7.40;99.90;;;;;;5054875;28;20202;-76
2022/03/02 03:49:36;;;;;;;33.40;26.17;;;7.40;99.90;;;;;;5053582;28;20441;-76
2022/03/02 03:52:04;;;;;;;31.63;23.77;;;7.60;99.90;;;;;;5053898;28;20324;-74
2022/03/02 03:54:31;;;;;;;34.60;24.10;;;7.60;99.90;;;;;;5054189;28;20222;-75
2022/03/02 03:56:57;;;;;;;31.87;23.90;;;7.60;99.90;;;;;;5053217;28;20219;-75
2022/03/02 03:59:25;;;;;;;35.43;25.07;;;7.70;99.90;;;;;;5054452;28;20221;-75
2022/03/02 04:01:52;;;;;;;30.97;23.13;;;7.60;99.90;;;;;;5054067;28;20202;-74
2022/03/02 04:04:20;;;;;;;32.93;25.00;;;7.70;99.90;;;;;;5054428;28;20214;-75
2022/03/02 04:06:47;;;;;;;33.10;23.90;;;7.40;99.90;;;;;;5054451;28;20206;-75
2022/03/02 04:09:14;;;;;;;33.53;23.97;;;7.60;99.90;;;;;;5054521;28;20245;-75
2022/03/02 04:11:41;;;;;;;31.47;24.00;;;7.60;99.90;;;;;;5053458;28;20194;-75
2022/03/02 04:14:08;;;;;;;36.47;27.00;;;7.60;99.90;;;;;;5053007;28;20820;-74
2022/03/02 04:16:35;;;;;;;38.37;24.73;;;7.70;99.90;;;;;;5054256;28;20559;-74
2022/03/02 04:19:04;;;;;;;34.67;24.77;;;7.70;99.90;;;;;;5053874;28;20203;-75
2022/03/02 04:21:32;;;;;;;32.93;24.37;;;7.60;99.90;;;;;;5053706;28;20570;-75
2022/03/02 04:23:59;;;;;;;42.20;25.00;;;7.60;99.90;;;;;;5053394;28;20209;-75
2022/03/02 04:26:26;;;;;;;30.47;23.87;;;7.20;99.90;;;;;;5053445;28;20218;-74
2022/03/02 04:28:53;;;;;;;31.70;23.97;;;7.20;99.90;;;;;;5053832;28;20218;-78
2022/03/02 04:31:19;;;;;;;33.73;24.60;;;7.20;99.90;;;;;;5053789;28;20202;-75
2022/03/02 04:33:49;;;;;;;34.93;24.17;;;7.20;99.90;;;;;;5053852;28;20237;-75
2022/03/02 04:36:16;;;;;;;33.23;23.90;;;7.50;99.90;;;;;;5052697;28;20206;-75
2022/03/02 04:38:45;;;;;;;30.47;23.90;;;7.40;99.90;;;;;;5054255;28;20199;-74
2022/03/02 04:41:11;;;;;;;40.17;24.13;;;7.50;99.90;;;;;;5053309;28;20730;-73
2022/03/02 04:43:39;;;;;;;34.63;23.37;;;7.50;99.90;;;;;;5053753;28;20214;-75
2022/03/02 04:46:06;;;;;;;36.80;24.20;;;7.40;99.90;;;;;;5053785;28;20271;-74
2022/03/02 04:48:33;;;;;;;30.77;23.53;;;7.40;99.90;;;;;;5074250;22;20233;-75
2022/03/02 04:51:00;;;;;;;42.93;26.77;;;7.30;99.90;;;;;;5073651;28;20241;-74
2022/03/02 04:53:27;;;;;;;34.03;24.10;;;7.30;99.90;;;;;;5073400;28;20221;-75
2022/03/02 04:55:55;;;;;;;35.57;24.83;;;7.00;99.90;;;;;;5072588;28;20194;-75
2022/03/02 04:58:22;;;;;;;33.87;23.30;;;7.10;99.90;;;;;;5073545;28;20203;-74
2022/03/02 05:00:49;;;;;;;33.43;23.93;;;7.20;99.90;;;;;;5073436;28;20516;-75
2022/03/02 05:03:16;;;;;;;38.70;26.90;;;7.20;99.90;;;;;;5072017;28;20481;-75
2022/03/02 05:05:44;;;;;;;38.50;24.53;;;7.30;99.90;;;;;;5072961;28;20209;-76
2022/03/02 05:08:10;;;;;;;33.50;23.80;;;7.30;99.90;;;;;;5073426;28;20233;-75
2022/03/02 05:10:38;;;;;;;37.43;23.00;;;7.20;99.90;;;;;;5073541;28;20205;-75
2022/03/02 05:13:06;;;;;;;31.53;22.30;;;7.20;99.90;;;;;;5073439;28;20640;-73
2022/03/02 05:15:33;;;;;;;33.40;23.30;;;7.20;99.90;;;;;;5073663;28;20197;-75
2022/03/02 05:18:00;;;;;;;37.90;24.27;;;7.20;99.90;;;;;;5073427;28;20213;-75
2022/03/02 05:20:27;;;;;;;34.03;23.57;;;7.20;99.90;;;;;;5073285;28;20213;-74
2022/03/02 05:22:54;;;;;;;32.40;23.57;;;7.20;99.90;;;;;;5073030;28;20189;-75
2022/03/02 05:25:24;;;;;;;34.27;23.13;;;6.90;99.90;;;;;;5072796;28;20209;-75
2022/03/02 05:27:51;;;;;;;32.25;26.63;;;7.00;99.90;;;;;;5072185;28;20493;-75
2022/03/02 05:30:20;;;;;;;30.83;24.23;;;7.10;99.90;;;;;;5073544;28;20190;-74
2022/03/02 05:32:47;;;;;;;31.90;24.03;;;6.80;99.90;;;;;;5073140;28;20224;-74
2022/03/02 05:35:14;;;;;;;36.53;23.07;;;7.00;99.90;;;;;;5072816;28;20233;-74
2022/03/02 05:37:43;;;;;;;33.97;22.97;;;6.90;99.90;;;;;;5072252;28;20206;-76
2022/03/02 05:40:11;;;;;;;33.07;22.57;;;6.90;99.90;;;;;;5072864;28;20206;-74
2022/03/02 05:42:38;;;;;;;31.20;22.73;;;7.00;99.90;;;;;;5072847;28;20562;-75
2022/03/02 05:45:07;;;;;;;33.17;22.03;;;6.80;99.90;;;;;;5072909;28;20201;-76
2022/03/02 05:47:35;;;;;;;36.97;23.43;;;6.70;99.90;;;;;;5072184;28;20649;-75
2022/03/02 05:50:03;;;;;;;31.30;21.87;;;6.50;99.90;;;;;;5072584;28;20663;-75
2022/03/02 05:52:30;;;;;;;33.42;25.95;;;6.50;99.90;;;;;;5071702;28;20900;-75
2022/03/02 05:54:56;;;;;;;32.60;23.57;;;6.90;99.90;;;;;;5072736;28;20236;-75
2022/03/02 05:57:23;;;;;;;30.93;22.03;;;6.90;99.90;;;;;;5072239;28;20213;-76
2022/03/02 05:59:51;;;;;;;36.10;23.07;;;6.80;99.90;;;;;;5072569;28;20226;-75
2022/03/02 06:02:18;;;;;;;34.23;22.87;;;6.90;99.90;;;;;;5065372;28;20213;-74
2022/03/02 06:04:47;;;;;;;29.17;21.47;;;6.80;99.90;;;;;;5070536;28;20660;-75
2022/03/02 06:07:14;;;;;;;31.80;22.40;;;7.00;99.90;;;;;;5070368;28;20208;-76
2022/03/02 06:09:42;;;;;;;29.57;21.00;;;7.00;99.90;;;;;;5071973;28;20711;-74
2022/03/02 06:12:10;;;;;;;35.13;21.53;;;6.80;99.90;;;;;;5072565;28;20209;-75
2022/03/02 06:14:37;;;;;;;30.67;22.10;;;6.70;99.90;;;;;;5072513;28;20224;-76
2022/03/02 06:17:05;;;;;;;30.13;21.60;;;6.70;99.90;;;;;;5076060;28;20240;-76
2022/03/02 06:19:33;;;;;;;32.40;22.20;;;6.70;99.90;;;;;;5075480;28;20573;-77
2022/03/02 06:22:03;;;;;;;31.57;21.60;;;6.60;99.90;;;;;;5076001;28;20206;-74
2022/03/02 06:24:30;;;;;;;32.47;21.47;;;6.50;99.90;;;;;;5076320;28;20193;-74
2022/03/02 06:26:58;;;;;;;33.13;21.53;;;6.30;99.90;;;;;;5075460;28;20641;-75
2022/03/02 06:29:25;;;;;;;34.40;21.67;;;6.40;99.90;;;;;;5075775;28;20209;-75
2022/03/02 06:31:52;;;;;;;31.13;20.40;;;6.30;99.90;;;;;;5075573;28;20216;-75
2022/03/02 06:34:18;;;;;;;32.70;21.27;;;6.40;99.90;;;;;;5075787;28;20239;-75
2022/03/02 06:36:49;;;;;;;31.40;20.97;;;6.30;99.90;;;;;;5075392;28;20209;-74
2022/03/02 06:39:19;;;;;;;34.57;21.17;;;6.20;99.90;;;;;;5075643;28;20248;-74
2022/03/02 06:42:03;;;;;;;26.33;20.47;;;6.10;99.90;;;;;;5075529;28;20196;-75
2022/03/02 06:44:34;;;;;;;30.83;20.17;;;6.10;99.90;;;;;;5075878;28;20640;-74
2022/03/02 06:47:06;;;;;;;32.40;20.10;;;6.00;99.90;;;;;;5075959;28;20631;-76
2022/03/02 06:49:44;;;;;;;28.97;19.50;;;6.10;99.90;;;;;;5075096;28;20599;-73
2022/03/02 06:52:12;;;;;;;34.10;22.30;;;6.10;99.90;;;;;;5075847;28;20205;-75
2022/03/02 06:54:44;;;;;;;30.73;21.63;;;6.20;99.90;;;;;;5075553;28;20229;-74
2022/03/02 06:57:13;;;;;;;35.27;21.80;;;6.30;99.90;;;;;;5074862;28;20202;-74
2022/03/02 06:59:41;;;;;;;31.13;19.43;;;6.50;99.90;;;;;;5075252;28;20201;-74
2022/03/02 07:02:09;;;;;;;34.60;21.10;;;6.60;99.90;;;;;;5075305;28;20202;-74
2022/03/02 07:04:40;;;;;;;31.00;20.83;;;6.50;99.90;;;;;;5075304;28;20221;-74
2022/03/02 07:07:08;;;;;;;31.87;21.33;;;6.60;99.90;;;;;;5075320;28;20206;-74
2022/03/02 07:09:35;;;;;;;29.90;20.43;;;6.60;99.90;;;;;;5075921;28;20211;-75
2022/03/02 07:12:06;;;;;;;28.03;19.63;;;6.70;99.90;;;;;;5076133;28;20186;-76
2022/03/02 07:14:36;;;;;;;25.43;19.60;;;6.70;99.90;;;;;;5075657;28;20225;-75
2022/03/02 07:17:05;;;;;;;30.60;20.83;;;6.90;99.90;;;;;;5075716;28;20263;-76
2022/03/02 07:19:32;;;;;;;29.53;20.53;;;6.90;99.90;;;;;;5074963;28;20201;-74
2022/03/02 07:22:04;;;;;;;29.10;20.23;;;6.60;99.90;;;;;;5075658;28;20202;-75
2022/03/02 07:24:40;;;;;;;27.30;19.13;;;6.80;99.90;;;;;;5074539;28;20194;-75
2022/03/02 07:27:08;;;;;;;30.13;19.00;;;6.80;99.90;;;;;;5072650;28;20643;-75
2022/03/02 07:29:37;;;;;;;28.40;18.43;;;6.80;99.90;;;;;;5074490;28;20627;-77
2022/03/02 07:32:05;;;;;;;25.93;19.63;;;6.90;99.90;;;;;;5074572;28;20214;-76
2022/03/02 07:34:33;;;;;;;27.53;19.83;;;7.00;99.90;;;;;;5074635;28;20708;-73
2022/03/02 07:37:01;;;;;;;28.37;19.27;;;7.10;99.90;;;;;;5074871;28;20222;-74
2022/03/02 07:39:28;;;;;;;32.63;19.93;;;6.90;99.90;;;;;;5074259;28;20205;-75
2022/03/02 07:41:57;;;;;;;24.20;18.47;;;6.80;99.90;;;;;;5074635;28;20186;-75
2022/03/02 07:44:26;;;;;;;32.23;19.23;;;6.60;99.90;;;;;;5073990;28;20213;-75
2022/03/02 07:46:53;;;;;;;30.37;19.23;;;6.90;99.90;;;;;;5074316;28;20194;-74
2022/03/02 07:49:20;;;;;;;29.43;19.17;;;6.90;99.90;;;;;;5074024;28;20618;-74
2022/03/02 07:51:51;;;;;;;29.07;19.63;;;6.80;99.90;;;;;;5074704;28;20224;-75
2022/03/02 07:54:20;;;;;;;32.92;20.23;;;6.60;99.90;;;;;;5074073;28;20442;-74
2022/03/02 07:56:51;;;;;;;27.80;19.40;;;6.70;99.90;;;;;;5074593;28;20210;-77
2022/03/02 07:59:20;;;;;;;27.63;20.10;;;6.90;99.90;;;;;;5073867;28;20213;-80
2022/03/02 08:01:48;;;;;;;31.93;20.17;;;7.20;99.90;;;;;;5073947;28;20209;-77
2022/03/02 08:04:15;;;;;;;27.63;18.60;;;7.10;99.90;;;;;;5074349;28;20201;-80
2022/03/02 08:06:44;;;;;;;29.60;19.27;;;6.70;99.90;;;;;;5074710;28;20660;-82
2022/03/02 08:09:13;;;;;;;31.53;18.97;;;6.80;99.90;;;;;;5073486;28;20253;-76
2022/03/02 08:11:40;;;;;;;24.83;18.60;;;6.90;99.90;;;;;;5064440;28;20198;-74
2022/03/02 08:14:08;;;;;;;32.23;19.60;;;7.30;99.90;;;;;;5074391;28;20720;-78
2022/03/02 08:16:36;;;;;;;30.43;18.80;;;7.40;99.90;;;;;;5073791;28;20190;-75
2022/03/02 08:19:07;;;;;;;28.53;17.70;;;7.70;99.90;;;;;;5074151;28;20271;-77
2022/03/02 08:21:36;;;;;;;28.03;18.77;;;8.00;99.90;;;;;;5074230;28;20629;-80
2022/03/02 08:24:05;;;;;;;31.03;20.37;;;8.20;99.90;;;;;;5073334;28;20206;-77
2022/03/02 08:26:34;;;;;;;27.10;18.43;;;8.30;99.90;;;;;;5073697;28;20190;-77
2022/03/02 08:29:03;;;;;;;34.87;20.67;;;8.50;99.90;;;;;;5073983;28;20213;-83
2022/03/02 08:31:31;;;;;;;26.47;18.97;;;8.40;99.90;;;;;;5072943;28;20652;-83
2022/03/02 08:34:00;;;;;;;26.80;18.83;;;8.10;99.90;;;;;;5074121;28;20197;-84
2022/03/02 08:36:33;;;;;;;37.20;20.03;;;7.60;99.90;;;;;;5073397;28;20186;-82
2022/03/02 08:39:01;;;;;;;32.13;20.43;;;7.70;99.90;;;;;;5074083;28;20208;-85
2022/03/02 08:41:28;;;;;;;30.50;18.93;;;7.50;99.90;;;;;;5074354;28;20210;-82
2022/03/02 08:43:55;;;;;;;27.30;20.70;;;7.40;99.90;;;;;;5073468;28;20432;-83
2022/03/02 08:46:23;;;;;;;25.07;18.77;;;7.60;99.90;;;;;;5073576;28;20618;-79
2022/03/02 08:48:50;;;;;;;31.57;20.13;;;7.50;99.90;;;;;;5074086;28;20225;-86
2022/03/02 08:51:18;;;;;;;28.13;18.70;;;7.30;99.90;;;;;;5074119;28;20213;-87
2022/03/02 08:53:48;;;;;;;28.63;19.50;;;7.30;99.90;;;;;;5074316;28;20209;-80
2022/03/02 08:56:16;;;;;;;30.77;19.90;;;7.50;99.90;;;;;;5073723;28;20225;-86
2022/03/02 08:58:43;;;;;;;25.37;17.83;;;7.60;99.90;;;;;;5073728;28;20189;-83
2022/03/02 09:01:13;;;;;;;25.30;18.93;;;8.00;99.90;;;;;;5073482;28;20194;-82
2022/03/02 09:03:46;;;;;;;26.87;18.17;;;8.10;99.90;;;;;;5074143;28;20202;-80
2022/03/02 09:06:13;;;;;;;28.43;19.73;;;7.80;99.90;;;;;;5074039;28;20209;-85
2022/03/02 09:08:40;;;;;;;28.35;21.42;;;7.80;99.90;;;;;;5073312;28;20756;-87
2022/03/02 09:11:09;;;;;;;26.80;19.37;;;8.00;99.90;;;;;;5073441;28;20202;-82
2022/03/02 09:13:38;;;;;;;26.90;19.17;;;8.20;99.90;;;;;;5073520;28;20205;-85
2022/03/02 09:16:05;;;;;;;28.30;19.33;;;8.70;99.90;;;;;;5072937;28;20226;-86
2022/03/02 09:18:34;;;;;;;32.07;18.90;;;8.90;99.90;;;;;;5072937;28;20206;-80
2022/03/02 09:21:04;;;;;;;31.03;19.23;;;8.50;99.90;;;;;;5073378;28;20212;-77
2022/03/02 09:23:34;;;;;;;32.87;18.83;;;8.40;99.90;;;;;;5072863;28;20209;-82
2022/03/02 09:26:07;;;;;;;32.77;19.30;;;8.50;99.90;;;;;;5072866;28;20748;-80
2022/03/02 09:28:36;;;;;;;28.20;20.07;;;8.50;99.90;;;;;;5072848;28;20636;-78
2022/03/02 09:31:04;;;;;;;32.43;18.87;;;8.40;99.90;;;;;;5072762;28;20228;-81
2022/03/02 09:33:32;;;;;;;28.70;18.87;;;8.40;99.90;;;;;;5073035;28;20209;-76
2022/03/02 09:36:03;;;;;;;30.03;19.87;;;8.70;99.90;;;;;;5072395;28;20233;-75
2022/03/02 09:38:32;;;;;;;25.17;18.90;;;8.50;99.90;;;;;;5073253;28;20217;-81
2022/03/02 09:41:04;;;;;;;25.13;19.07;;;8.40;99.90;;;;;;5074190;28;20672;-87
2022/03/02 09:43:33;;;;;;;27.47;20.57;;;8.50;99.90;;;;;;5074204;28;20234;-84
2022/03/02 09:46:04;;;;;;;26.57;19.20;;;8.40;99.90;;;;;;5069762;28;20205;-81
2022/03/02 09:48:33;;;;;;;29.20;20.03;;;8.60;99.90;;;;;;5072902;28;20234;-84
2022/03/02 09:51:03;;;;;;;30.70;21.13;;;8.70;99.90;;;;;;5075637;28;20209;-84
2022/03/02 09:53:31;;;;;;;26.83;19.47;;;8.90;99.90;;;;;;5076774;28;20205;-80
2022/03/02 09:56:02;;;;;;;33.20;19.40;;;8.80;99.90;;;;;;5076866;28;20218;-81
2022/03/02 09:58:30;;;;;;;29.03;23.53;;;9.00;99.90;;;;;;5075897;28;20454;-80
2022/03/02 10:00:58;;;;;;;27.60;20.37;;;9.10;99.90;;;;;;5077123;28;20446;-83
2022/03/02 10:03:36;;;;;;;32.97;21.07;;;9.20;99.90;;;;;;5076812;28;20225;-82
2022/03/02 10:06:06;;;;;;;26.10;20.30;;;9.30;99.90;;;;;;5076364;28;20202;-82
2022/03/02 10:08:35;;;;;;;31.07;20.63;;;9.20;99.90;;;;;;5075983;28;20197;-80
2022/03/02 10:11:05;;;;;;;25.60;19.60;;;9.00;99.90;;;;;;5077243;28;20210;-79
2022/03/02 10:13:34;;;;;;;29.80;20.47;;;9.00;99.90;;;;;;5076146;28;20300;-80
2022/03/02 10:16:04;;;;;;;30.53;20.10;;;9.00;99.90;;;;;;5076659;28;20217;-82
2022/03/02 10:18:35;;;;;;;31.10;21.17;;;9.10;99.90;;;;;;5076395;28;20247;-80
2022/03/02 10:21:05;;;;;;;26.53;19.80;;;9.00;99.90;;;;;;5075971;28;20585;-84
2022/03/02 10:23:40;;;;;;;30.33;20.23;;;9.00;99.90;;;;;;5075928;28;20543;-86
2022/03/02 10:26:19;;;;;;;26.13;18.83;;;9.10;99.90;;;;;;5076759;28;20605;-84
2022/03/02 10:28:53;;;;;;;28.03;19.63;;;9.20;99.90;;;;;;5073842;28;20194;-80
2022/03/02 10:31:27;;;;;;;29.60;19.40;;;9.50;99.90;;;;;;5073022;28;20202;-77
2022/03/02 10:33:58;;;;;;;30.53;19.87;;;10.00;99.90;;;;;;5074420;28;20558;-80
2022/03/02 10:36:28;;;;;;;27.13;20.13;;;9.70;99.90;;;;;;5074516;28;20226;-81
2022/03/02 10:39:07;;;;;;;26.07;18.73;;;10.10;99.90;;;;;;5073545;28;20530;-83
2022/03/02 10:41:37;;;;;;;28.77;19.33;;;10.10;99.90;;;;;;5071979;28;20207;-78
2022/03/02 10:44:09;;;;;;;27.47;19.50;;;10.00;99.90;;;;;;5074927;28;20316;-79
2022/03/02 10:46:44;;;;;;;23.13;19.03;;;10.00;99.90;;;;;;5074858;28;20279;-77
2022/03/02 10:49:18;;;;;;;29.80;19.17;;;10.10;99.90;;;;;;5073799;28;20218;-80
2022/03/02 10:51:46;;;;;;;29.07;18.63;;;10.00;99.90;;;;;;5074842;28;20198;-77
2022/03/02 10:54:17;;;;;;;28.17;20.43;;;10.10;99.90;;;;;;5074135;28;20217;-79
2022/03/02 10:56:45;;;;;;;33.67;19.30;;;10.20;99.90;;;;;;5074583;28;20233;-76
2022/03/02 10:59:16;;;;;;;29.33;23.00;;;10.30;99.90;;;;;;5077805;28;20452;-76
2022/03/02 11:01:43;;;;;;;31.73;21.47;;;10.20;99.90;;;;;;5094144;28;20194;-77
2022/03/02 11:04:11;;;;;;;25.73;20.00;;;10.10;99.90;;;;;;5084160;28;20193;-78
2022/03/02 11:06:39;;;;;;;29.37;20.23;;;10.20;99.90;;;;;;5073875;28;20621;-77
2022/03/02 11:09:06;;;;;;;27.20;19.10;;;10.50;99.90;;;;;;5073627;28;20208;-77
2022/03/02 11:11:35;;;;;;;25.80;19.60;;;10.70;99.90;;;;;;5070336;28;20209;-78
2022/03/02 11:14:03;;;;;;;26.73;18.77;;;10.80;99.90;;;;;;5073689;28;20194;-78
2022/03/02 11:16:30;;;;;;;29.67;19.00;;;10.60;99.90;;;;;;5073132;28;20233;-79
2022/03/02 11:18:59;;;;;;;26.13;21.33;;;11.00;99.90;;;;;;5079399;28;20444;-79
2022/03/02 11:21:30;;;;;;;26.50;19.57;;;10.80;99.90;;;;;;5080468;28;20183;-79
2022/03/02 11:24:01;;;;;;;26.70;19.80;;;10.80;99.90;;;;;;5075787;28;20192;-78
2022/03/02 11:26:30;;;;;;;26.83;19.53;;;11.30;99.90;;;;;;5076709;28;20203;-77
2022/03/02 11:29:00;;;;;;;29.27;20.30;;;11.10;99.90;;;;;;5078015;28;20191;-78
2022/03/02 11:31:30;;;;;;;26.33;19.87;;;11.20;99.90;;;;;;5079760;28;20199;-78
2022/03/02 11:34:10;;;;;;;38.23;19.70;;;11.30;99.90;;;;;;5073876;28;20204;-78
2022/03/02 11:36:41;;;;;;;23.23;18.63;;;10.80;99.90;;;;;;5073419;28;20214;-78
2022/03/02 11:39:10;;;;;;;26.73;18.93;;;10.80;99.90;;;;;;5054171;28;20191;-79
2022/03/02 11:41:39;;;;;;;27.70;19.20;;;10.80;99.90;;;;;;5054834;28;20213;-79
2022/03/02 11:44:26;;;;;;;25.87;18.43;;;11.10;99.90;;;;;;5054415;28;20219;-78
2022/03/02 11:46:54;;;;;;;28.43;18.67;;;10.70;99.90;;;;;;5072158;28;20282;-81
2022/03/02 11:49:22;;;;;;;26.50;19.33;;;10.70;99.90;;;;;;5079191;28;20230;-78
2022/03/02 11:52:05;;;;;;;26.00;17.87;;;10.60;99.90;;;;;;5068771;28;20651;-78
2022/03/02 11:54:44;;;;;;;29.93;18.03;;;11.00;99.90;;;;;;5060151;28;20211;-82
2022/03/02 11:57:12;;;;;;;28.73;18.33;;;10.80;99.90;;;;;;5053991;28;20245;-80
2022/03/02 11:59:39;;;;;;;29.27;18.88;;;10.70;99.90;;;;;;5061257;28;20428;-79
2022/03/02 12:02:13;;;;;;;27.53;18.07;;;11.10;99.90;;;;;;5071095;28;20206;-77
2022/03/02 12:04:40;;;;;;;22.87;18.20;;;10.90;99.90;;;;;;5073865;28;20194;-79
2022/03/02 12:07:08;;;;;;;25.27;17.20;;;11.40;99.90;;;;;;5073544;28;20373;-84
2022/03/02 12:09:37;;;;;;;26.03;17.40;;;11.50;99.90;;;;;;5072852;28;20210;-80
2022/03/02 12:12:10;;;;;;;23.93;17.10;;;11.60;99.90;;;;;;5070136;28;20210;-77
2022/03/02 12:14:45;;;;;;;24.63;17.63;;;11.60;99.90;;;;;;5056683;28;20217;-82
2022/03/02 12:17:18;;;;;;;27.77;17.87;;;11.40;99.90;;;;;;5053065;28;20634;-78
2022/03/02 12:19:50;;;;;;;28.80;18.00;;;11.20;99.90;;;;;;5053151;28;20207;-85
2022/03/02 12:22:18;;;;;;;25.70;20.70;;;11.00;99.90;;;;;;5053325;28;20425;-77
2022/03/02 12:24:47;;;;;;;22.47;17.50;;;11.10;99.90;;;;;;5054584;28;20259;-78
2022/03/02 12:27:16;;;;;;;23.63;17.40;;;11.60;99.90;;;;;;5067825;28;20644;-76
2022/03/02 12:29:45;;;;;;;22.47;18.57;;;12.00;99.90;;;;;;5071899;28;20209;-78
2022/03/02 12:32:15;;;;;;;21.77;16.80;;;11.60;99.90;;;;;;5072381;28;20197;-89
2022/03/02 12:34:44;;;;;;;26.60;17.93;;;11.20;99.90;;;;;;5073510;28;20930;-87
2022/03/02 12:37:12;;;;;;;25.70;16.83;;;11.40;99.90;;;;;;5070410;28;20219;-90
2022/03/02 12:39:40;;;;;;;22.50;16.90;;;11.40;99.90;;;;;;5073168;28;20195;-76
2022/03/02 12:42:08;;;;;;;23.90;18.25;;;11.70;99.90;;;;;;5069974;28;20427;-78
2022/03/02 12:44:39;;;;;;;22.87;17.43;;;12.10;99.90;;;;;;5065019;28;20282;-83